Time;durP1;ratioP1;P1;durP2;ratioP2;P2;SDS_P1;SDS_P2;PMS_P1;PMS_P2;Temp;Humidity;BMP_temperature;BMP_pressure;BME280_temperature;BME280_humidity;BME280_pressure;Samples;Min_cycle;Max_cycle;Signal;HPM_P1;HPM_P2
2023/10/06 00:02:20;;;;;;;1999.90;999.90;;;;;;;7.75;100.00;98772.56;18635264;31;20044;-58
2023/10/06 00:12:26;;;;;;;1999.90;999.90;;;;;;;7.70;100.00;98780.53;18619930;31;20409;-58
2023/10/06 00:22:29;;;;;;;1999.90;999.90;;;;;;;7.62;100.00;98788.91;18626902;31;20055;-60
2023/10/06 00:32:32;;;;;;;1999.90;999.90;;;;;;;7.56;100.00;98787.09;18619183;31;20052;-60
2023/10/06 00:42:34;;;;;;;1999.90;999.90;;;;;;;7.61;100.00;98777.28;18618067;31;20087;-60
2023/10/06 00:52:39;;;;;;;1999.90;999.90;;;;;;;7.69;100.00;98760.03;18631724;31;20105;-60
2023/10/06 01:02:46;;;;;;;1999.90;999.90;;;;;;;7.44;100.00;98760.91;18616762;31;20075;-60
2023/10/06 01:12:52;;;;;;;1999.90;999.90;;;;;;;7.29;100.00;98761.25;18630603;31;20052;-60
2023/10/06 01:22:56;;;;;;;1999.90;999.90;;;;;;;7.19;100.00;98758.25;18630667;31;20040;-60
2023/10/06 01:32:58;;;;;;;1999.90;999.90;;;;;;;7.08;100.00;98758.97;18629115;31;20373;-60
2023/10/06 01:43:09;;;;;;;1999.90;999.90;;;;;;;7.21;100.00;98753.47;18628045;31;20060;-60
2023/10/06 01:53:18;;;;;;;1999.90;999.90;;;;;;;7.26;100.00;98763.56;18628159;31;20064;-60
2023/10/06 02:03:22;;;;;;;1999.90;999.90;;;;;;;7.16;100.00;98765.94;18627531;31;20051;-60
2023/10/06 02:13:25;;;;;;;1999.90;999.90;;;;;;;7.06;100.00;98758.37;18626641;31;20099;-60
2023/10/06 02:23:28;;;;;;;1999.90;999.90;;;;;;;6.86;100.00;98753.97;18626446;31;20107;-60
2023/10/06 02:33:36;;;;;;;1999.90;999.90;;;;;;;6.72;100.00;98752.44;18626009;31;20432;-60
2023/10/06 02:43:40;;;;;;;1999.90;999.90;;;;;;;6.65;100.00;98755.16;18559025;32;20083;-60
2023/10/06 02:53:48;;;;;;;1999.90;999.90;;;;;;;6.64;100.00;98744.66;18559273;32;20104;-58
2023/10/06 03:04:05;;;;;;;1999.90;999.90;;;;;;;6.58;100.00;98744.47;18559919;31;20067;-58
2023/10/06 03:14:09;;;;;;;1999.90;999.90;;;;;;;6.37;100.00;98729.53;18559663;31;20065;-58
2023/10/06 03:24:30;;;;;;;1999.90;999.90;;;;;;;6.61;100.00;98727.91;18567077;31;20097;-57
2023/10/06 03:34:34;;;;;;;1999.90;999.90;;;;;;;6.65;100.00;98719.41;18571299;31;20466;-58
2023/10/06 03:44:37;;;;;;;1999.90;999.90;;;;;;;6.33;100.00;98727.47;18632793;31;20075;-60
2023/10/06 03:54:39;;;;;;;1999.90;999.90;;;;;;;6.25;100.00;98717.81;18630113;31;20056;-60
2023/10/06 04:04:42;;;;;;;1999.90;999.90;;;;;;;6.28;100.00;98715.50;18633372;31;20071;-60
2023/10/06 04:14:44;;;;;;;1999.90;999.90;;;;;;;6.29;100.00;98700.25;18634413;31;20151;-60
2023/10/06 04:24:47;;;;;;;1999.90;999.90;;;;;;;6.22;100.00;98711.03;18633657;31;20057;-60
2023/10/06 04:34:51;;;;;;;1999.90;999.90;;;;;;;6.19;100.00;98705.25;18618716;31;20364;-60
2023/10/06 04:44:54;;;;;;;1999.90;999.90;;;;;;;6.19;100.00;98697.19;18631952;31;20060;-60
2023/10/06 04:54:57;;;;;;;1999.90;999.90;;;;;;;6.14;100.00;98707.75;18631481;31;20140;-60
2023/10/06 05:05:01;;;;;;;1999.90;999.90;;;;;;;6.14;100.00;98713.97;18616847;31;20089;-60
2023/10/06 05:15:14;;;;;;;1999.90;999.90;;;;;;;6.05;100.00;98704.50;18630246;31;20071;-60
2023/10/06 05:25:19;;;;;;;1999.90;999.90;;;;;;;5.98;100.00;98704.53;18629858;31;20432;-60
2023/10/06 05:35:24;;;;;;;1999.90;999.90;;;;;;;5.87;100.00;98705.19;18614276;31;20048;-60
2023/10/06 05:45:29;;;;;;;1999.90;999.90;;;;;;;6.08;100.00;98707.59;18621346;31;20056;-60
2023/10/06 05:55:35;;;;;;;1999.90;999.90;;;;;;;6.07;100.00;98705.94;18627960;31;20056;-60
2023/10/06 06:05:38;;;;;;;1999.90;999.90;;;;;;;6.05;100.00;98702.63;18612771;31;20112;-60
2023/10/06 06:15:41;;;;;;;1999.90;999.90;;;;;;;6.13;100.00;98723.03;18612437;31;20083;-60
2023/10/06 06:25:44;;;;;;;1999.90;999.90;;;;;;;6.31;100.00;98733.06;18626488;31;20044;-60
2023/10/06 06:35:49;;;;;;;1999.90;999.90;;;;;;;6.66;100.00;98739.84;18625559;31;20048;-60
2023/10/06 06:45:53;;;;;;;1999.90;999.90;;;;;;;6.87;100.00;98765.56;18625271;31;20068;-59
2023/10/06 06:55:56;;;;;;;1999.90;999.90;;;;;;;7.18;100.00;98769.22;18616976;31;20373;-60
2023/10/06 07:06:00;;;;;;;1999.90;999.90;;;;;;;7.45;100.00;98786.78;18638297;31;20073;-60
2023/10/06 07:16:05;;;;;;;1999.90;999.90;;;;;;;7.67;100.00;98786.34;18637654;31;20386;-60
2023/10/06 07:26:11;;;;;;;1999.90;999.90;;;;;;;7.86;100.00;98789.03;18637335;31;20455;-60
2023/10/06 07:36:17;;;;;;;1999.90;999.90;;;;;;;8.14;100.00;98801.97;18602781;31;20057;-60
2023/10/06 07:46:21;;;;;;;1999.90;999.90;;;;;;;8.48;100.00;98797.84;18636323;31;20049;-60
2023/10/06 07:56:24;;;;;;;1999.90;999.90;;;;;;;8.91;100.00;98811.34;18635229;31;20094;-60
2023/10/06 08:06:27;;;;;;;1999.90;999.90;;;;;;;9.22;100.00;98793.19;18619999;31;20052;-60
2023/10/06 08:16:30;;;;;;;1999.90;999.90;;;;;;;9.60;100.00;98786.50;18634375;31;20056;-60
2023/10/06 08:26:41;;;;;;;1999.90;999.90;;;;;;;9.93;100.00;98785.03;18626975;31;20424;-58
2023/10/06 08:36:43;;;;;;;1999.90;999.90;;;;;;;10.30;100.00;98792.81;18617646;31;20105;-58
2023/10/06 08:46:47;;;;;;;1999.90;999.90;;;;;;;10.67;100.00;98796.00;18632323;31;20048;-58
2023/10/06 08:56:51;;;;;;;1999.90;999.90;;;;;;;11.13;100.00;98785.12;18617687;31;20040;-58
2023/10/06 09:07:12;;;;;;;1999.90;999.90;;;;;;;11.63;100.00;98785.31;18630919;31;20086;-58
2023/10/06 09:17:28;;;;;;;1999.90;999.90;;;;;;;11.86;100.00;98785.09;18629556;31;20090;-58
2023/10/06 09:27:34;;;;;;;1999.90;999.90;;;;;;;12.24;100.00;98784.50;18629658;31;20118;-58
2023/10/06 09:37:37;;;;;;;1999.90;999.90;;;;;;;12.58;100.00;98785.16;18628680;31;20064;-58
2023/10/06 09:47:48;;;;;;;1999.90;999.90;;;;;;;12.93;100.00;98770.28;18627755;31;20113;-58
2023/10/06 09:57:54;;;;;;;1999.90;999.90;;;;;;;13.26;100.00;98762.12;18627721;31;20060;-58
2023/10/06 10:07:57;;;;;;;1999.90;999.90;;;;;;;13.66;100.00;98756.16;18627336;31;20364;-58
2023/10/06 10:18:15;;;;;;;1999.90;999.90;;;;;;;13.98;100.00;98760.66;18605725;31;20060;-58
2023/10/06 10:28:27;;;;;;;1999.90;999.90;;;;;;;14.07;100.00;98747.38;18626396;31;20043;-58
2023/10/06 10:38:33;;;;;;;1999.90;999.90;;;;;;;14.23;100.00;98746.31;18625580;31;20049;-58
2023/10/06 10:48:47;;;;;;;1999.90;999.90;;;;;;;14.57;100.00;98745.06;18598117;31;20062;-58
2023/10/06 10:58:50;;;;;;;1999.90;999.90;;;;;;;15.02;100.00;98727.16;18625199;31;20444;-58
2023/10/06 11:08:54;;;;;;;1999.90;999.90;;;;;;;15.15;100.00;98708.59;18618081;31;20047;-58
2023/10/06 11:18:58;;;;;;;1999.90;999.90;;;;;;;15.33;100.00;98709.94;18624532;31;20065;-58
2023/10/06 11:29:01;;;;;;;1999.90;999.90;;;;;;;15.88;100.00;98689.09;18610163;31;20083;-58
2023/10/06 11:39:05;;;;;;;1999.90;999.90;;;;;;;16.37;100.00;98689.34;18623716;31;20061;-58
2023/10/06 11:49:09;;;;;;;1999.90;999.90;;;;;;;17.26;100.00;98678.25;18621573;31;20053;-58
2023/10/06 11:59:20;;;;;;;1999.90;999.90;;;;;;;17.71;100.00;98666.28;18621102;31;20477;-58
2023/10/06 12:09:33;;;;;;;1999.90;999.90;;;;;;;18.39;100.00;98653.31;18634646;31;20086;-58
2023/10/06 12:19:36;;;;;;;1999.90;999.90;;;;;;;19.01;100.00;98652.31;18619453;31;20056;-58
2023/10/06 12:29:39;;;;;;;1999.90;999.90;;;;;;;19.37;100.00;98643.44;18606087;31;20075;-58
2023/10/06 12:39:45;;;;;;;1999.90;999.90;;;;;;;19.60;100.00;98638.88;18632811;31;20099;-58
2023/10/06 12:49:48;;;;;;;1999.90;999.90;;;;;;;19.67;96.12;98635.72;18632192;31;20075;-58
2023/10/06 12:59:51;;;;;;;1999.90;999.90;;;;;;;19.58;88.26;98628.19;18624826;31;20112;-58
2023/10/06 13:09:58;;;;;;;1999.90;999.90;;;;;;;19.64;88.39;98626.97;18616964;31;20048;-58
2023/10/06 13:20:00;;;;;;;1999.90;999.90;;;;;;;19.82;100.00;98616.19;18630189;31;20052;-58
2023/10/06 13:30:22;;;;;;;1999.90;999.90;;;;;;;19.76;91.25;98620.97;18629437;31;20108;-58
2023/10/06 13:40:25;;;;;;;1999.90;999.90;;;;;;;19.58;80.23;98616.41;18628712;31;20044;-58
2023/10/06 13:50:30;;;;;;;1999.90;999.90;;;;;;;19.67;82.70;98603.59;18621721;31;20400;-58
2023/10/06 14:10:37;;;;;;;1999.90;999.90;;;;;;;19.74;61.63;98600.44;18626637;31;20511;-58
2023/10/06 14:20:43;;;;;;;;;;;;;;;19.68;60.29;98593.41;18627049;31;20045;-58
2023/10/06 14:30:45;;;;;;;1999.90;999.90;;;;;;;19.78;59.77;98595.94;18612711;31;19958;-58
2023/10/06 14:51:18;;;;;;;1999.90;999.90;;;;;;;19.39;79.83;98603.63;18625480;31;20096;-58
2023/10/06 15:01:22;;;;;;;1999.90;999.90;;;;;;;19.00;100.00;98590.41;18625205;31;20049;-58
2023/10/06 15:11:28;;;;;;;1999.90;999.90;;;;;;;18.60;100.00;98583.41;18610997;31;20064;-58
2023/10/06 15:21:33;;;;;;;1999.90;999.90;;;;;;;18.36;100.00;98579.97;18635916;31;20433;-58
2023/10/06 15:31:37;;;;;;;1999.90;999.90;;;;;;;18.03;100.00;98582.69;18623168;31;20057;-58
2023/10/06 15:41:39;;;;;;;1999.90;999.90;;;;;;;17.83;100.00;98570.91;18621492;31;20108;-58
2023/10/06 15:51:42;;;;;;;1999.90;999.90;;;;;;;17.67;100.00;98564.03;18621741;31;20104;-58
2023/10/06 16:01:47;;;;;;;1999.90;999.90;;;;;;;17.46;100.00;98561.56;18620881;31;20112;-58
2023/10/06 16:11:50;;;;;;;1999.90;999.90;;;;;;;17.29;100.00;98562.03;18634923;31;20056;-58
2023/10/06 16:21:55;;;;;;;1999.90;999.90;;;;;;;17.01;100.00;98571.97;18606318;31;20124;-58
2023/10/06 16:31:59;;;;;;;1999.90;999.90;;;;;;;16.72;100.00;98570.03;18618697;31;20056;-58
2023/10/06 16:42:05;;;;;;;1999.90;999.90;;;;;;;16.31;100.00;98570.38;18632171;31;20092;-58
2023/10/06 16:52:08;;;;;;;1999.90;999.90;;;;;;;15.89;100.00;98584.31;18618527;31;20346;-58
2023/10/06 17:02:13;;;;;;;1999.90;999.90;;;;;;;15.51;100.00;98586.69;18617114;31;20144;-58
2023/10/06 17:12:20;;;;;;;1999.90;999.90;;;;;;;15.05;100.00;98595.03;18630781;31;20060;-58
2023/10/06 17:22:24;;;;;;;1999.90;999.90;;;;;;;14.70;100.00;98604.91;18616321;31;20128;-58
2023/10/06 17:32:27;;;;;;;1999.90;999.90;;;;;;;14.21;100.00;98608.94;18622753;31;20411;-58
2023/10/06 17:42:30;;;;;;;1999.90;999.90;;;;;;;13.73;100.00;98609.13;18628094;31;20052;-58
2023/10/06 17:52:33;;;;;;;1999.90;999.90;;;;;;;13.45;100.00;98616.66;18628385;31;20057;-58
2023/10/06 18:02:36;;;;;;;1999.90;999.90;;;;;;;13.13;100.00;98623.00;18627903;31;20387;-58
2023/10/06 18:12:40;;;;;;;1999.90;999.90;;;;;;;12.82;100.00;98628.22;18627346;31;20056;-58
2023/10/06 18:22:43;;;;;;;1999.90;999.90;;;;;;;12.49;100.00;98630.16;18612786;31;20456;-58
2023/10/06 18:32:46;;;;;;;1999.90;999.90;;;;;;;12.31;100.00;98641.41;18626182;31;20071;-58
2023/10/06 18:42:49;;;;;;;1999.90;999.90;;;;;;;12.10;100.00;98646.63;18625579;31;20096;-58
2023/10/06 18:52:52;;;;;;;1999.90;999.90;;;;;;;11.92;100.00;98644.22;18611381;31;20341;-58
2023/10/06 19:02:54;;;;;;;1999.90;999.90;;;;;;;11.64;100.00;98663.16;18624976;31;20146;-58
2023/10/06 19:12:59;;;;;;;1999.90;999.90;;;;;;;11.44;100.00;98663.75;18610577;31;20060;-58
2023/10/06 19:23:03;;;;;;;1999.90;999.90;;;;;;;11.18;100.00;98671.50;18603767;31;20065;-58
2023/10/06 19:33:07;;;;;;;1999.90;999.90;;;;;;;11.06;100.00;98668.09;18624415;31;20120;-58
2023/10/06 19:43:10;;;;;;;1999.90;999.90;;;;;;;10.92;100.00;98677.59;18623851;31;20071;-58
2023/10/06 19:53:13;;;;;;;1999.90;999.90;;;;;;;10.76;100.00;98679.28;18623809;31;20100;-58
2023/10/06 20:03:16;;;;;;;1999.90;999.90;;;;;;;10.69;100.00;98679.44;18627320;31;20428;-58
2023/10/06 20:13:19;;;;;;;1999.90;999.90;;;;;;;10.54;100.00;98681.87;18631673;31;20072;-58
2023/10/06 20:23:22;;;;;;;1999.90;999.90;;;;;;;10.37;100.00;98687.25;18630679;31;20078;-58
2023/10/06 20:33:25;;;;;;;1999.90;999.90;;;;;;;10.26;100.00;98683.53;18633414;31;20064;-58
2023/10/06 20:43:27;;;;;;;1999.90;999.90;;;;;;;10.12;100.00;98680.31;18632292;31;20087;-58
2023/10/06 20:53:32;;;;;;;1999.90;999.90;;;;;;;9.96;100.00;98687.28;18631996;31;20064;-58
2023/10/06 21:03:34;;;;;;;1999.90;999.90;;;;;;;9.84;100.00;98698.97;18631272;31;20499;-57
2023/10/06 21:13:38;;;;;;;1999.90;999.90;;;;;;;9.67;100.00;98703.47;18624270;31;20053;-58
2023/10/06 21:23:41;;;;;;;1999.90;999.90;;;;;;;9.54;100.00;98711.81;18630645;31;20052;-58
2023/10/06 21:33:44;;;;;;;1999.90;999.90;;;;;;;9.47;100.00;98709.28;18629820;31;20120;-58
2023/10/06 21:43:46;;;;;;;1999.90;999.90;;;;;;;9.40;100.00;98708.56;18628429;31;20105;-57
2023/10/06 21:53:49;;;;;;;1999.90;999.90;;;;;;;9.37;100.00;98715.25;18628346;31;20079;-58
2023/10/06 22:03:52;;;;;;;1999.90;999.90;;;;;;;9.27;100.00;98715.03;18627766;31;20101;-58
2023/10/06 22:13:55;;;;;;;1999.90;999.90;;;;;;;9.24;100.00;98700.13;18627099;31;20068;-57
2023/10/06 22:23:58;;;;;;;1999.90;999.90;;;;;;;9.15;100.00;98699.69;18626320;31;20474;-58
2023/10/06 22:34:00;;;;;;;1999.90;999.90;;;;;;;8.96;100.00;98698.97;18626409;31;20368;-59
2023/10/06 22:44:03;;;;;;;1999.90;999.90;;;;;;;8.87;100.00;98694.97;18625388;31;20096;-59
2023/10/06 22:54:06;;;;;;;1999.90;999.90;;;;;;;8.65;100.00;98690.16;18625700;31;20071;-59
2023/10/06 23:04:09;;;;;;;1999.90;999.90;;;;;;;8.52;100.00;98684.97;18625005;31;20065;-59
2023/10/06 23:14:14;;;;;;;1999.90;999.90;;;;;;;8.44;100.00;98696.03;18625106;31;20091;-59
2023/10/06 23:24:17;;;;;;;1999.90;999.90;;;;;;;8.39;100.00;98691.34;18610767;31;20108;-59
2023/10/06 23:34:19;;;;;;;1999.90;999.90;;;;;;;8.25;100.00;98690.72;18610345;31;20063;-59
2023/10/06 23:44:22;;;;;;;1999.90;999.90;;;;;;;8.06;100.00;98697.22;18569095;32;20065;-60
2023/10/06 23:54:26;;;;;;;1999.90;999.90;;;;;;;8.06;100.00;98695.34;18570184;31;20045;-60
